Time;durP1;ratioP1;P1;durP2;ratioP2;P2;SDS_P1;SDS_P2;PMS_P1;PMS_P2;Temp;Humidity;BMP_temperature;BMP_pressure;BME280_temperature;BME280_humidity;BME280_pressure;Samples;Min_cycle;Max_cycle;Signal;HPM_P1;HPM_P2
2022/10/16 00:00:46;;;;;;;;;;;12.30;78.90;;;-151.14;100.00;62537.16;5072591;28;20097;-82
2022/10/16 00:03:14;;;;;;;;;;;12.30;78.80;;;-151.14;100.00;62537.16;5055305;28;19920;-83
2022/10/16 00:05:43;;;;;;;;;;;12.30;79.00;;;-151.14;100.00;62537.16;5085189;28;20124;-83
2022/10/16 00:08:11;;;;;;;;;;;12.30;78.90;;;-151.14;100.00;62537.16;5093393;28;19926;-82
2022/10/16 00:10:39;;;;;;;;;;;12.30;78.90;;;-151.14;100.00;62537.16;5093408;28;19926;-82
2022/10/16 00:13:09;;;;;;;;;;;12.30;79.20;;;-151.14;100.00;62537.16;5093415;28;19928;-82
2022/10/16 00:15:38;;;;;;;;;;;12.30;78.90;;;-151.14;100.00;62537.16;5091573;28;19921;-82
2022/10/16 00:18:07;;;;;;;;;;;12.30;78.90;;;-151.14;100.00;62537.16;5092364;28;20226;-82
2022/10/16 00:20:36;;;;;;;;;;;12.30;79.10;;;-151.14;100.00;62537.16;5092141;28;20123;-82
2022/10/16 00:23:23;;;;;;;;;;;12.30;78.90;;;-151.14;100.00;62537.16;5092515;28;19920;-82
2022/10/16 00:25:57;;;;;;;;;;;12.30;78.90;;;-151.14;100.00;62537.16;5075297;28;19920;-82
2022/10/16 00:28:27;;;;;;;;;;;12.30;78.90;;;-151.14;100.00;62537.16;5093104;28;19927;-82
2022/10/16 00:30:55;;;;;;;;;;;12.30;79.10;;;-151.14;100.00;62537.16;5092132;28;19927;-82
2022/10/16 00:33:23;;;;;;;;;;;12.20;79.00;;;-151.14;100.00;62537.16;5091811;28;19920;-82
2022/10/16 00:35:51;;;;;;;;;;;12.20;78.90;;;-151.14;100.00;62537.16;5108274;28;19927;-82
2022/10/16 00:38:19;;;;;;;;;;;12.20;78.80;;;-151.14;100.00;62537.16;5091774;28;19920;-82
2022/10/16 00:40:47;;;;;;;;;;;12.20;78.80;;;-151.14;100.00;62537.16;5093062;28;20111;-82
2022/10/16 00:43:33;;;;;;;;;;;12.20;78.90;;;12.78;100.00;62537.16;5074454;28;19920;-82
2022/10/16 00:46:02;;;;;;;;;;;12.20;79.20;;;-151.14;100.00;62537.16;5091793;28;19920;-82
2022/10/16 00:48:30;;;;;;;;;;;12.30;79.00;;;-151.14;100.00;62537.16;5091701;28;20261;-83
2022/10/16 00:50:58;;;;;;;;;;;12.20;79.80;;;-151.14;100.00;62537.16;5091757;28;19920;-82
2022/10/16 00:53:26;;;;;;;;;;;12.20;79.00;;;12.78;100.00;62537.16;5091056;28;19920;-82
2022/10/16 00:55:54;;;;;;;;;;;12.20;78.90;;;-151.14;100.00;62537.16;5091490;28;19920;-82
2022/10/16 00:58:22;;;;;;;;;;;12.20;78.90;;;-151.14;100.00;62537.16;5092738;28;19920;-82
2022/10/16 01:00:50;;;;;;;;;;;12.20;79.10;;;-151.14;100.00;62537.16;5092642;28;19920;-82
2022/10/16 01:03:28;;;;;;;;;;;12.20;79.20;;;-151.14;100.00;62537.16;5092132;28;19943;-82
2022/10/16 01:06:04;;;;;;;;;;;12.20;79.10;;;-151.14;100.00;62537.16;5092558;28;20234;-82
2022/10/16 01:08:35;;;;;;;;;;;12.20;79.20;;;-151.14;100.00;62537.16;5091449;28;20130;-82
2022/10/16 01:11:07;;;;;;;;;;;12.20;79.20;;;-151.14;100.00;62537.16;5092428;28;19920;-83
2022/10/16 01:13:38;;;;;;;;;;;12.20;79.10;;;-151.14;100.00;62537.16;5090911;28;19928;-83
2022/10/16 01:16:08;;;;;;;;;;;12.20;79.10;;;-151.14;100.00;62537.16;5091091;28;19920;-82
2022/10/16 01:18:40;;;;;;;;;;;12.20;79.00;;;-151.14;100.00;62537.16;5108246;28;19943;-82
2022/10/16 01:21:10;;;;;;;;;;;12.20;79.10;;;12.78;100.00;62537.16;5092311;28;19920;-82
2022/10/16 01:23:44;;;;;;;;;;;12.20;79.10;;;-151.14;100.00;62537.16;5090615;28;19951;-82
2022/10/16 01:26:16;;;;;;;;;;;12.20;79.40;;;-151.14;100.00;62537.16;5091073;28;19927;-83
2022/10/16 01:28:47;;;;;;;;;;;12.20;79.20;;;18.08;100.00;62537.16;5108230;28;20111;-82
2022/10/16 01:31:17;;;;;;;;;;;12.20;79.10;;;-151.14;100.00;62537.16;5108041;28;19920;-82
2022/10/16 01:33:46;;;;;;;;;;;12.20;79.20;;;-151.14;100.00;62537.16;5090379;28;20207;-82
2022/10/16 01:36:15;;;;;;;;;;;12.20;79.20;;;-151.14;100.00;62537.16;5090776;28;19920;-82
2022/10/16 01:38:44;;;;;;;;;;;12.20;79.10;;;-151.14;100.00;62537.16;5092131;28;20241;-82
2022/10/16 01:41:14;;;;;;;;;;;12.20;79.20;;;-151.14;100.00;62537.16;5092096;28;19982;-82
2022/10/16 01:43:44;;;;;;;;;;;12.20;79.30;;;-151.14;100.00;62537.16;5090403;28;19920;-82
2022/10/16 01:46:14;;;;;;;;;;;12.20;79.20;;;-151.14;100.00;62537.16;5090363;28;19926;-82
2022/10/16 01:48:42;;;;;;;;;;;12.10;79.00;;;-151.14;100.00;62537.16;5090823;28;19926;-82
2022/10/16 01:51:11;;;;;;;;;;;12.20;78.90;;;-151.14;100.00;62537.16;5091917;28;20250;-82
2022/10/16 01:53:40;;;;;;;;;;;12.10;78.90;;;-151.14;100.00;62537.16;5090149;28;20119;-82
2022/10/16 01:56:09;;;;;;;;;;;12.10;79.10;;;-151.14;100.00;62537.16;5091529;28;19921;-82
2022/10/16 01:58:40;;;;;;;;;;;12.10;79.20;;;-151.14;100.00;62537.16;5091846;28;19920;-82
2022/10/16 02:01:08;;;;;;;;;;;12.10;78.90;;;-151.14;100.00;62537.16;5107553;28;19927;-82
2022/10/16 02:03:37;;;;;;;;;;;12.10;79.10;;;-151.14;100.00;62537.16;5033463;28;19927;-82
2022/10/16 02:06:05;;;;;;;;;;;12.10;78.90;;;-151.14;100.00;62537.16;5050429;28;19920;-82
2022/10/16 02:08:33;;;;;;;;;;;12.10;79.00;;;-151.14;100.00;62537.16;5033873;28;19920;-82
2022/10/16 02:11:01;;;;;;;;;;;12.10;79.20;;;-151.14;100.00;62537.16;5050478;28;20094;-82
2022/10/16 02:13:32;;;;;;;;;;;12.10;79.10;;;-151.14;100.00;62537.16;5033289;28;20213;-82
2022/10/16 02:16:00;;;;;;;;;;;12.10;79.00;;;-151.14;100.00;62537.16;5051304;28;20234;-82
2022/10/16 02:18:30;;;;;;;;;;;12.10;79.00;;;-151.14;100.00;62537.16;5064602;28;19921;-82
2022/10/16 02:21:01;;;;;;;;;;;12.10;79.10;;;-151.14;100.00;62537.16;5070154;28;19921;-82
2022/10/16 02:23:34;;;;;;;;;;;12.10;79.10;;;-151.14;100.00;62537.16;5069636;28;19926;-82
2022/10/16 02:26:02;;;;;;;;;;;12.10;79.10;;;-151.14;100.00;62537.16;5071188;28;20227;-82
2022/10/16 02:28:32;;;;;;;;;;;12.10;79.10;;;-151.14;100.00;62537.16;5071298;28;19928;-82
2022/10/16 02:31:00;;;;;;;;;;;12.10;79.00;;;-151.14;100.00;62537.16;5070101;28;19978;-82
2022/10/16 02:33:28;;;;;;;;;;;12.10;79.20;;;-151.14;100.00;62537.16;5069725;28;19929;-82
2022/10/16 02:35:57;;;;;;;;;;;12.10;79.30;;;-151.14;100.00;62537.16;5069716;28;19927;-82
2022/10/16 02:38:26;;;;;;;;;;;12.10;80.00;;;-151.14;100.00;62537.16;5069993;28;19921;-82
2022/10/16 02:40:54;;;;;;;;;;;12.10;79.00;;;-151.14;100.00;62537.16;5069904;28;19921;-82
2022/10/16 02:43:22;;;;;;;;;;;12.10;79.10;;;-151.14;100.00;62537.16;5086206;28;19920;-82
2022/10/16 02:45:50;;;;;;;;;;;12.10;79.10;;;-151.14;100.00;62537.16;5069757;28;19927;-82
2022/10/16 02:48:18;;;;;;;;;;;12.10;79.20;;;-151.14;100.00;62537.16;5069920;28;19942;-82
2022/10/16 02:50:46;;;;;;;;;;;12.00;79.70;;;-151.14;100.00;62537.16;5069819;28;20092;-82
2022/10/16 02:53:14;;;;;;;;;;;12.00;79.00;;;-151.14;100.00;62537.16;5070802;28;19927;-82
2022/10/16 02:55:44;;;;;;;;;;;12.00;78.90;;;-151.14;100.00;62537.16;5052154;28;20230;-82
2022/10/16 02:58:12;;;;;;;;;;;12.00;78.90;;;-151.14;100.00;62537.16;5072261;28;19920;-81
2022/10/16 03:00:40;;;;;;;;;;;12.00;79.10;;;-151.14;100.00;62537.16;5074435;28;20234;-81
2022/10/16 03:03:08;;;;;;;;;;;12.00;79.00;;;-151.14;100.00;62537.16;5073233;28;19943;-81
2022/10/16 03:05:36;;;;;;;;;;;12.00;79.10;;;-151.14;100.00;62537.16;5073834;28;19927;-81
2022/10/16 03:08:04;;;;;;;;;;;12.00;79.10;;;-151.14;100.00;62537.16;5073295;28;19920;-81
2022/10/16 03:10:32;;;;;;;;;;;12.00;79.10;;;-151.14;100.00;62537.16;5073066;28;19920;-81
2022/10/16 03:13:01;;;;;;;;;;;12.00;79.00;;;-151.14;100.00;62537.16;5074246;28;19920;-81
2022/10/16 03:15:30;;;;;;;;;;;12.00;79.00;;;-151.14;100.00;62537.16;5072560;28;19927;-81
2022/10/16 03:17:58;;;;;;;;;;;12.00;78.90;;;-151.14;100.00;62537.16;5074023;28;19927;-81
2022/10/16 03:20:26;;;;;;;;;;;12.00;78.90;;;-151.14;100.00;62537.16;5072987;28;19926;-81
2022/10/16 03:22:54;;;;;;;;;;;12.00;79.10;;;-151.14;100.00;62537.16;5074149;28;19926;-81
2022/10/16 03:25:22;;;;;;;;;;;12.00;79.00;;;-151.14;100.00;62537.16;5055697;28;19927;-81
2022/10/16 03:27:51;;;;;;;;;;;12.00;78.90;;;-151.14;100.00;62537.16;5072870;28;19921;-81
2022/10/16 03:30:20;;;;;;;;;;;12.00;78.80;;;-151.14;100.00;62537.16;5072900;28;19920;-81
2022/10/16 03:32:53;;;;;;;;;;;12.00;78.80;;;-151.14;100.00;62537.16;5073946;28;19927;-81
2022/10/16 03:35:21;;;;;;;;;;;12.00;78.90;;;-151.14;100.00;62537.16;5072142;28;19927;-81
2022/10/16 03:37:49;;;;;;;;;;;12.00;78.90;;;-151.14;100.00;62537.16;5072687;28;20115;-81
2022/10/16 03:40:17;;;;;;;;;;;12.00;79.10;;;-151.14;100.00;62537.16;5073883;28;20097;-81
2022/10/16 03:42:45;;;;;;;;;;;12.00;79.10;;;-151.14;100.00;62537.16;5072722;28;19927;-81
2022/10/16 03:45:13;;;;;;;;;;;12.00;79.10;;;-151.14;100.00;62537.16;5072076;28;20230;-81
2022/10/16 03:47:43;;;;;;;;;;;12.00;79.10;;;-151.14;100.00;62537.16;5073604;28;19920;-81
2022/10/16 03:50:11;;;;;;;;;;;12.00;79.00;;;-151.14;100.00;62537.16;5073736;28;20250;-81
2022/10/16 03:52:39;;;;;;;;;;;12.00;79.00;;;-151.14;100.00;62537.16;5073693;28;19924;-81
2022/10/16 03:55:08;;;;;;;;;;;12.00;79.00;;;-151.14;100.00;62537.16;5071948;28;20191;-81
2022/10/16 03:57:36;;;;;;;;;;;12.00;79.20;;;-151.14;100.00;62537.16;5072218;28;19920;-81
2022/10/16 04:00:05;;;;;;;;;;;12.00;79.20;;;-151.14;100.00;62537.16;5072476;28;19921;-81
2022/10/16 04:02:39;;;;;;;;;;;12.00;79.20;;;-151.14;100.00;62537.16;5072391;28;20249;-81
2022/10/16 04:05:09;;;;;;;;;;;12.00;79.20;;;-151.14;100.00;62537.16;5071675;28;19920;-81
2022/10/16 04:07:37;;;;;;;;;;;11.90;79.20;;;-151.14;100.00;62537.16;5072121;28;19921;-82
2022/10/16 04:10:06;;;;;;;;;;;11.90;79.10;;;-151.14;100.00;62537.16;5073283;28;19920;-81
2022/10/16 04:12:34;;;;;;;;;;;11.90;79.10;;;-151.14;100.00;62537.16;5073326;28;19926;-81
2022/10/16 04:15:02;;;;;;;;;;;11.90;79.20;;;-151.14;100.00;62537.16;5071728;28;19956;-81
2022/10/16 04:17:30;;;;;;;;;;;11.90;79.10;;;-151.14;100.00;62537.16;5073064;28;19920;-81
2022/10/16 04:19:58;;;;;;;;;;;11.90;79.20;;;-151.14;100.00;62537.16;5072058;28;19920;-82
2022/10/16 04:22:28;;;;;;;;;;;11.90;79.20;;;-151.14;100.00;62537.16;5072143;28;19927;-81
2022/10/16 04:24:56;;;;;;;;;;;11.90;79.20;;;-151.14;100.00;62537.16;5088390;28;19920;-81
2022/10/16 04:27:24;;;;;;;;;;;11.90;79.10;;;-151.14;100.00;62537.16;5073072;28;19921;-81
2022/10/16 04:29:52;;;;;;;;;;;11.90;79.10;;;-151.14;100.00;62537.16;5071960;28;19920;-81
2022/10/16 04:32:20;;;;;;;;;;;11.90;79.10;;;-151.14;100.00;62537.16;5072000;28;19921;-81
2022/10/16 04:34:48;;;;;;;;;;;11.90;79.30;;;-151.14;100.00;62537.16;5054636;28;19926;-81
2022/10/16 04:37:16;;;;;;;;;;;11.90;79.30;;;-151.14;100.00;62537.16;5055124;28;19920;-81
2022/10/16 04:39:46;;;;;;;;;;;11.90;79.20;;;-151.14;100.00;62537.16;5055248;28;19920;-81
2022/10/16 04:42:14;;;;;;;;;;;11.90;79.40;;;-151.14;100.00;62537.16;5088565;28;19927;-81
2022/10/16 04:44:42;;;;;;;;;;;11.90;79.20;;;-151.14;100.00;62537.16;5071327;28;20119;-81
2022/10/16 04:47:10;;;;;;;;;;;11.90;79.30;;;18.08;100.00;62537.16;5071503;28;19921;-81
2022/10/16 04:49:38;;;;;;;;;;;11.90;79.30;;;-151.14;100.00;62537.16;5072918;28;19921;-81
2022/10/16 04:52:06;;;;;;;;;;;11.90;79.20;;;-151.14;100.00;62537.16;5071679;28;19926;-81
2022/10/16 04:54:34;;;;;;;;;;;11.90;79.30;;;-151.14;100.00;62537.16;5054436;28;19920;-81
2022/10/16 04:57:04;;;;;;;;;;;11.90;79.20;;;-151.14;100.00;62537.16;5072433;28;19920;-82
2022/10/16 04:59:32;;;;;;;;;;;11.90;79.10;;;-151.14;100.00;62537.16;5075128;28;19920;-81
2022/10/16 05:02:00;;;;;;;;;;;11.90;79.10;;;-151.14;100.00;62537.16;5091469;28;19924;-81
2022/10/16 05:04:28;;;;;;;;;;;11.90;79.10;;;-151.14;100.00;62537.16;5090984;28;20212;-81
2022/10/16 05:06:56;;;;;;;;;;;11.90;79.10;;;-151.14;100.00;62537.16;5091133;28;20211;-82
2022/10/16 05:09:24;;;;;;;;;;;11.90;79.30;;;-151.14;100.00;62537.16;5091348;28;19920;-81
2022/10/16 05:11:52;;;;;;;;;;;11.90;79.20;;;-151.14;100.00;62537.16;5091343;28;19920;-81
2022/10/16 05:14:22;;;;;;;;;;;11.90;79.10;;;-151.14;100.00;62537.16;5090887;28;19920;-82
2022/10/16 05:16:50;;;;;;;;;;;11.90;79.00;;;-151.14;100.00;62537.16;5092363;28;19920;-81
2022/10/16 05:19:18;;;;;;;;;;;11.90;79.10;;;-151.14;100.00;62537.16;5092447;28;19920;-81
2022/10/16 05:21:46;;;;;;;;;;;11.90;79.00;;;-151.14;100.00;62537.16;5091718;28;19926;-81
2022/10/16 05:24:15;;;;;;;;;;;11.90;78.90;;;-151.14;100.00;62537.16;5090613;28;19926;-81
2022/10/16 05:26:43;;;;;;;;;;;11.90;78.70;;;18.08;100.00;62537.16;5072616;28;20234;-81
2022/10/16 05:29:11;;;;;;;;;;;11.90;78.70;;;-151.14;100.00;62537.16;5072037;28;19943;-81
2022/10/16 05:31:40;;;;;;;;;;;11.90;78.80;;;-151.14;100.00;62537.16;5072008;28;19920;-81
2022/10/16 05:34:08;;;;;;;;;;;11.90;78.80;;;-151.14;100.00;62537.16;5071138;28;20235;-81
2022/10/16 05:36:36;;;;;;;;;;;11.90;78.60;;;-151.14;100.00;62537.16;5087677;28;19920;-81
2022/10/16 05:39:04;;;;;;;;;;;12.00;78.60;;;-151.14;100.00;62537.16;5074101;28;19920;-82
2022/10/16 05:41:32;;;;;;;;;;;12.00;78.60;;;-151.14;100.00;62537.16;5107688;28;19920;-81
2022/10/16 05:44:00;;;;;;;;;;;12.00;78.50;;;-151.14;100.00;62537.16;5091197;28;20131;-81
2022/10/16 05:46:28;;;;;;;;;;;12.00;78.50;;;-151.14;100.00;62537.16;5076909;28;19928;-81
2022/10/16 05:48:58;;;;;;;;;;;12.10;78.40;;;-151.14;100.00;62537.16;5071612;28;19940;-81
2022/10/16 05:51:28;;;;;;;;;;;12.10;78.00;;;-151.14;100.00;62537.16;5082938;28;19920;-81
2022/10/16 05:53:56;;;;;;;;;;;12.10;77.60;;;-151.14;100.00;62537.16;5090184;28;19920;-81
2022/10/16 05:56:24;;;;;;;;;;;12.20;77.40;;;-151.14;100.00;62537.16;5107711;28;19982;-81
2022/10/16 05:58:53;;;;;;;;;;;12.20;77.30;;;-151.14;100.00;62537.16;5090498;28;19920;-82
2022/10/16 06:01:23;;;;;;;;;;;12.20;77.10;;;-151.14;100.00;62537.16;5091742;28;19927;-81
2022/10/16 06:03:51;;;;;;;;;;;12.30;77.10;;;-151.14;100.00;62537.16;5091158;28;19927;-81
2022/10/16 06:06:22;;;;;;;;;;;12.30;76.80;;;-151.14;100.00;62537.16;5091637;28;19927;-82
2022/10/16 06:08:50;;;;;;;;;;;12.30;76.60;;;-151.14;100.00;62537.16;5073750;28;19921;-81
2022/10/16 06:11:19;;;;;;;;;;;12.30;76.60;;;-151.14;100.00;62537.16;5090413;28;19920;-81
2022/10/16 06:13:50;;;;;;;;;;;12.30;76.90;;;-151.14;100.00;62537.16;5090973;28;20364;-81
2022/10/16 06:16:18;;;;;;;;;;;12.30;76.80;;;-151.14;100.00;62537.16;5090260;28;19920;-81
2022/10/16 06:18:46;;;;;;;;;;;12.40;76.80;;;-151.14;100.00;62537.16;5091592;28;19920;-81
2022/10/16 06:21:16;;;;;;;;;;;12.40;76.60;;;-151.14;100.00;62537.16;5073625;28;19920;-81
2022/10/16 06:23:45;;;;;;;;;;;12.40;76.40;;;-151.14;100.00;62537.16;5091076;28;19920;-81
2022/10/16 06:26:14;;;;;;;;;;;12.40;76.00;;;-151.14;100.00;62537.16;5090264;28;19951;-81
2022/10/16 06:28:42;;;;;;;;;;;12.50;76.40;;;-151.14;100.00;62537.16;5090413;28;19926;-81
2022/10/16 06:31:10;;;;;;;;;;;12.50;76.00;;;-151.14;100.00;62537.16;5073414;28;19926;-82
2022/10/16 06:33:39;;;;;;;;;;;12.50;76.10;;;-151.14;100.00;62537.16;5075700;28;20230;-81
2022/10/16 06:36:08;;;;;;;;;;;12.50;75.70;;;-151.14;100.00;62537.16;5093673;28;20207;-81
2022/10/16 06:38:36;;;;;;;;;;;12.60;75.80;;;-151.14;100.00;62537.16;5094886;28;19924;-81
2022/10/16 06:41:06;;;;;;;;;;;12.60;75.30;;;-151.14;100.00;62537.16;5093713;28;19920;-81
2022/10/16 06:43:35;;;;;;;;;;;12.60;75.50;;;-151.14;100.00;62537.16;5094286;28;19928;-82
2022/10/16 06:46:03;;;;;;;;;;;12.60;75.50;;;-151.14;100.00;62537.16;5094712;28;19970;-81
2022/10/16 06:48:31;;;;;;;;;;;12.70;76.00;;;-151.14;100.00;62537.16;5093604;28;19920;-82
2022/10/16 06:50:59;;;;;;;;;;;12.70;76.70;;;-151.14;100.00;62537.16;5093552;28;19926;-81
2022/10/16 06:53:28;;;;;;;;;;;12.80;76.70;;;-151.14;100.00;62537.16;5093058;28;20143;-81
2022/10/16 06:55:56;;;;;;;;;;;12.80;77.00;;;-151.14;100.00;62537.16;5093245;28;19926;-81
2022/10/16 06:58:25;;;;;;;;;;;12.80;77.10;;;-151.14;100.00;62537.16;5094522;28;19928;-82
2022/10/16 07:00:56;;;;;;;;;;;12.90;77.20;;;-151.14;100.00;62537.16;5093576;28;20234;-82
2022/10/16 07:03:24;;;;;;;;;;;12.90;77.20;;;-151.14;100.00;62537.16;5092910;28;19920;-82
2022/10/16 07:05:52;;;;;;;;;;;12.90;77.20;;;-151.14;100.00;62537.16;5093269;28;19920;-82
2022/10/16 07:08:21;;;;;;;;;;;13.00;77.10;;;-151.14;100.00;62537.16;5093381;28;19927;-82
2022/10/16 07:10:49;;;;;;;;;;;13.00;77.10;;;-151.14;100.00;62537.16;5094406;28;19927;-82
2022/10/16 07:13:17;;;;;;;;;;;13.00;77.10;;;-151.14;100.00;62537.16;5094011;28;19920;-82
2022/10/16 07:15:46;;;;;;;;;;;13.00;77.10;;;-151.14;100.00;62537.16;5093182;28;19927;-82
2022/10/16 07:18:14;;;;;;;;;;;13.00;77.10;;;18.08;100.00;62537.16;5093265;28;19926;-82
2022/10/16 07:20:42;;;;;;;;;;;13.10;77.00;;;-151.14;100.00;62537.16;5093298;28;20119;-82
2022/10/16 07:23:10;;;;;;;;;;;13.10;76.90;;;-151.14;100.00;62537.16;5094256;28;19920;-82
2022/10/16 07:25:38;;;;;;;;;;;13.10;76.80;;;-151.14;100.00;62537.16;5093767;28;19920;-82
2022/10/16 07:28:07;;;;;;;;;;;13.10;76.80;;;-151.14;100.00;62537.16;5093039;28;20208;-82
2022/10/16 07:30:36;;;;;;;;;;;13.10;76.70;;;-151.14;100.00;62537.16;5093170;28;20128;-82
2022/10/16 07:33:05;;;;;;;;;;;13.20;76.70;;;18.08;100.00;62537.16;5093010;28;19920;-82
2022/10/16 07:35:33;;;;;;;;;;;13.20;76.60;;;-151.14;100.00;62537.16;5075518;28;20238;-82
2022/10/16 07:38:01;;;;;;;;;;;13.20;76.60;;;-151.14;100.00;62537.16;5076099;28;19920;-82
2022/10/16 07:40:29;;;;;;;;;;;13.20;76.50;;;-151.14;100.00;62537.16;5092715;28;19927;-82
2022/10/16 07:42:58;;;;;;;;;;;13.20;76.40;;;-151.14;100.00;62537.16;5092581;28;19920;-82
2022/10/16 07:45:26;;;;;;;;;;;13.20;76.40;;;-151.14;100.00;62537.16;5093300;28;19920;-82
2022/10/16 07:47:54;;;;;;;;;;;13.30;76.50;;;-151.14;100.00;62537.16;5093927;28;19942;-82
2022/10/16 07:50:23;;;;;;;;;;;13.30;76.40;;;-151.14;100.00;62537.16;5092772;28;19920;-82
2022/10/16 07:52:51;;;;;;;;;;;13.30;76.40;;;-151.14;100.00;62537.16;5092745;28;19927;-82
2022/10/16 07:55:19;;;;;;;;;;;13.30;76.40;;;-151.14;100.00;62537.16;5093256;28;19920;-82
2022/10/16 07:57:47;;;;;;;;;;;13.30;76.30;;;-151.14;100.00;62537.16;5092419;28;19926;-82
2022/10/16 08:00:15;;;;;;;;;;;13.30;76.20;;;-151.14;100.00;62537.16;5075605;28;19926;-82
2022/10/16 08:02:43;;;;;;;;;;;13.30;76.20;;;-151.14;100.00;62537.16;5092521;28;19920;-82
2022/10/16 08:05:11;;;;;;;;;;;13.30;76.10;;;-151.14;100.00;62537.16;5091992;28;19942;-82
2022/10/16 08:07:41;;;;;;;;;;;13.30;76.10;;;-151.14;100.00;62537.16;5109516;28;20114;-82
2022/10/16 08:10:21;;;;;;;;;;;13.40;76.10;;;-151.14;100.00;62537.16;5092354;28;19920;-82
2022/10/16 08:12:49;;;;;;;;;;;13.40;76.10;;;-151.14;100.00;62537.16;5092417;28;19920;-82
2022/10/16 08:15:17;;;;;;;;;;;13.40;76.00;;;-151.14;100.00;62537.16;5091682;28;20254;-82
2022/10/16 08:17:45;;;;;;;;;;;13.40;76.10;;;-151.14;100.00;62537.16;5093448;28;19921;-82
2022/10/16 08:20:13;;;;;;;;;;;13.40;76.10;;;-151.14;100.00;62537.16;5093264;28;19926;-82
2022/10/16 08:22:42;;;;;;;;;;;13.40;76.10;;;-151.14;100.00;62537.16;5092051;28;20229;-83
2022/10/16 08:25:10;;;;;;;;;;;13.40;76.10;;;-151.14;100.00;62537.16;5091724;28;20115;-82
2022/10/16 08:27:38;;;;;;;;;;;13.40;76.10;;;-151.14;100.00;62537.16;5090944;28;19952;-82
2022/10/16 08:30:08;;;;;;;;;;;13.40;76.20;;;-151.14;100.00;62537.16;5072026;28;19920;-82
2022/10/16 08:32:36;;;;;;;;;;;13.40;76.20;;;-151.14;100.00;62537.16;5071960;28;19920;-82
2022/10/16 08:35:04;;;;;;;;;;;13.30;76.20;;;-151.14;100.00;62537.16;5071188;28;19927;-82
2022/10/16 08:37:33;;;;;;;;;;;13.30;76.20;;;-151.14;100.00;62537.16;5088576;28;19927;-82
2022/10/16 08:40:02;;;;;;;;;;;13.30;76.20;;;-151.14;100.00;62537.16;5071638;28;19920;-82
2022/10/16 08:42:39;;;;;;;;;;;13.30;76.20;;;-151.14;100.00;62537.16;5072886;28;19921;-82
2022/10/16 08:45:20;;;;;;;;;;;13.30;76.20;;;-151.14;100.00;62537.16;5070970;28;19926;-82
2022/10/16 08:47:50;;;;;;;;;;;13.30;76.30;;;-151.14;100.00;62537.16;5088318;28;19921;-82
2022/10/16 08:50:22;;;;;;;;;;;13.30;76.30;;;-151.14;100.00;62537.16;5034942;28;19927;-82
2022/10/16 08:52:50;;;;;;;;;;;13.30;76.30;;;-151.14;100.00;62537.16;5051454;28;19928;-83
2022/10/16 08:55:29;;;;;;;;;;;13.30;76.20;;;-151.14;100.00;62537.16;5051155;28;19920;-83
2022/10/16 08:57:57;;;;;;;;;;;13.30;76.30;;;-151.14;100.00;62537.16;5052657;28;19935;-83
2022/10/16 09:00:25;;;;;;;;;;;13.30;76.40;;;-151.14;100.00;62537.16;5052574;28;19921;-83
2022/10/16 09:02:55;;;;;;;;;;;13.30;76.40;;;-151.14;100.00;62537.16;5051330;28;19921;-83
2022/10/16 09:05:29;;;;;;;;;;;13.30;76.30;;;-151.14;100.00;62537.16;5051895;28;19921;-83
2022/10/16 09:08:02;;;;;;;;;;;13.30;76.30;;;-151.14;100.00;62537.16;5051132;28;19927;-83
2022/10/16 09:10:38;;;;;;;;;;;13.30;76.30;;;-151.14;100.00;62537.16;5034660;28;20120;-83
2022/10/16 09:13:13;;;;;;;;;;;13.30;76.40;;;-151.14;100.00;62537.16;5051194;28;19943;-83
2022/10/16 09:15:44;;;;;;;;;;;13.30;76.40;;;-151.14;100.00;62537.16;5052195;28;20302;-83
2022/10/16 09:18:16;;;;;;;;;;;13.30;76.30;;;-151.14;100.00;62537.16;5034476;28;19928;-84
2022/10/16 09:20:50;;;;;;;;;;;13.30;76.30;;;-151.14;100.00;62537.16;5052269;28;20373;-83
2022/10/16 09:23:19;;;;;;;;;;;13.30;76.30;;;-151.14;100.00;62537.16;5067154;28;19920;-83
2022/10/16 09:25:49;;;;;;;;;;;13.30;76.30;;;-151.14;100.00;62537.16;5052020;28;19921;-83
2022/10/16 09:28:17;;;;;;;;;;;13.30;76.30;;;-151.14;100.00;62537.16;5052006;28;20123;-83
2022/10/16 09:30:46;;;;;;;;;;;13.30;76.30;;;-151.14;100.00;62537.16;5034535;28;19921;-83
2022/10/16 09:33:14;;;;;;;;;;;13.20;76.20;;;-151.14;100.00;62537.16;5034068;28;19921;-84
2022/10/16 09:35:43;;;;;;;;;;;13.20;76.20;;;-151.14;100.00;62537.16;5050884;28;19921;-83
2022/10/16 09:38:22;;;;;;;;;;;13.20;76.20;;;-151.14;100.00;62537.16;5050835;28;19921;-82
2022/10/16 09:40:51;;;;;;;;;;;13.20;76.30;;;-151.14;100.00;62537.16;5050639;28;19921;-83
2022/10/16 09:43:23;;;;;;;;;;;13.20;76.30;;;-151.14;100.00;62537.16;5050286;28;20124;-83
2022/10/16 09:45:56;;;;;;;;;;;13.20;76.40;;;-151.14;100.00;62537.16;5033667;28;20826;-83
2022/10/16 09:48:25;;;;;;;;;;;13.20;76.40;;;-151.14;100.00;62537.16;5051814;28;19928;-83
2022/10/16 09:51:00;;;;;;;;;;;13.20;76.50;;;-151.14;100.00;62537.16;5034012;28;20131;-83
2022/10/16 09:53:40;;;;;;;;;;;13.20;76.50;;;-151.14;100.00;62537.16;5051307;28;19929;-83
2022/10/16 09:56:13;;;;;;;;;;;13.20;76.50;;;-151.14;100.00;62537.16;5050423;28;19921;-83
2022/10/16 09:58:45;;;;;;;;;;;13.20;76.50;;;-151.14;100.00;62537.16;5050659;28;19927;-83
2022/10/16 10:01:14;;;;;;;;;;;13.20;76.40;;;-151.14;100.00;62537.16;5033799;28;19920;-83
2022/10/16 10:03:43;;;;;;;;;;;13.20;76.50;;;-151.14;100.00;62537.16;5049904;28;19920;-83
2022/10/16 10:06:19;;;;;;;;;;;13.20;76.50;;;-151.14;100.00;62537.16;5049979;28;19921;-83
2022/10/16 10:09:01;;;;;;;;;;;13.20;76.60;;;18.08;100.00;62537.16;5033910;28;19921;-83
2022/10/16 10:11:44;;;;;;;;;;;13.20;76.60;;;-151.14;100.00;62537.16;5051548;28;19928;-83
2022/10/16 10:14:19;;;;;;;;;;;13.20;76.60;;;-151.14;100.00;62537.16;5051022;28;19943;-84
2022/10/16 10:16:47;;;;;;;;;;;13.20;76.70;;;-151.14;100.00;62537.16;5050277;28;19927;-84
2022/10/16 10:19:16;;;;;;;;;;;13.10;76.80;;;-151.14;100.00;62537.16;5033758;28;19927;-83
2022/10/16 10:21:44;;;;;;;;;;;13.10;76.80;;;-151.14;100.00;62537.16;5050180;28;19943;-84
2022/10/16 10:24:13;;;;;;;;;;;13.10;76.80;;;-151.14;100.00;62537.16;5049530;28;20111;-84
2022/10/16 10:26:50;;;;;;;;;;;13.10;76.90;;;-151.14;100.00;62537.16;5033492;28;19921;-83
2022/10/16 10:29:24;;;;;;;;;;;13.10;76.80;;;-151.14;100.00;62537.16;5033569;28;19920;-84
2022/10/16 10:31:55;;;;;;;;;;;13.10;76.90;;;-151.14;100.00;62537.16;5033471;28;19927;-83
2022/10/16 10:34:32;;;;;;;;;;;13.10;76.90;;;-151.14;100.00;62537.16;5049580;28;20143;-84
2022/10/16 10:37:04;;;;;;;;;;;13.10;76.90;;;-151.14;100.00;62537.16;5033407;28;20116;-84
2022/10/16 10:39:33;;;;;;;;;;;13.10;76.90;;;-151.14;100.00;62537.16;5051130;28;19927;-84
2022/10/16 10:42:22;;;;;;;;;;;13.10;77.00;;;-151.14;100.00;62537.16;5049925;28;19920;-83
2022/10/16 10:45:00;;;;;;;;;;;13.00;76.80;;;-151.14;100.00;62537.16;5033019;28;19920;-83
2022/10/16 10:47:33;;;;;;;;;;;13.00;76.90;;;-151.14;100.00;62537.16;5049758;28;19921;-84
2022/10/16 10:50:08;;;;;;;;;;;13.00;76.90;;;-151.14;100.00;62537.16;5049916;28;20123;-84
2022/10/16 10:52:42;;;;;;;;;;;13.00;76.90;;;-151.14;100.00;62537.16;5049803;28;19921;-84
2022/10/16 10:55:14;;;;;;;;;;;13.00;76.90;;;-151.14;100.00;62537.16;5049441;28;19931;-84
2022/10/16 10:57:46;;;;;;;;;;;13.00;76.90;;;-151.14;100.00;62537.16;5049423;28;19921;-84
2022/10/16 11:00:19;;;;;;;;;;;13.00;76.90;;;-151.14;100.00;62537.16;5033081;28;19928;-84
2022/10/16 11:02:49;;;;;;;;;;;13.00;77.00;;;12.02;100.00;62537.16;5033236;28;19927;-84
2022/10/16 11:05:40;;;;;;;;;;;13.00;77.00;;;12.02;100.00;62537.16;5032597;28;19921;-84